sensor_id;sensor_type;location;lat;lon;timestamp;noise_LAeq;noise_LA_min;noise_LA_max;noise_LA01;noise_LA95
70077;Laerm;57448;51.490;5.436;2023-11-21T00:00:46;40.36;36.21;46.72;;
70077;Laerm;57448;51.490;5.436;2023-11-21T00:03:12;39.29;35.74;47.45;;
70077;Laerm;57448;51.490;5.436;2023-11-21T00:05:40;40.79;36.43;47.74;;
70077;Laerm;57448;51.490;5.436;2023-11-21T00:08:06;39.38;35.40;48.34;;
70077;Laerm;57448;51.490;5.436;2023-11-21T00:10:31;39.90;36.24;46.02;;
70077;Laerm;57448;51.490;5.436;2023-11-21T00:12:57;40.62;36.36;48.08;;
70077;Laerm;57448;51.490;5.436;2023-11-21T00:15:22;39.50;36.27;46.10;;
70077;Laerm;57448;51.490;5.436;2023-11-21T00:17:48;38.80;34.96;46.45;;
70077;Laerm;57448;51.490;5.436;2023-11-21T00:20:13;38.84;33.97;46.92;;
70077;Laerm;57448;51.490;5.436;2023-11-21T00:22:38;37.04;33.53;43.83;;
70077;Laerm;57448;51.490;5.436;2023-11-21T00:25:05;39.72;36.05;44.74;;
70077;Laerm;57448;51.490;5.436;2023-11-21T00:27:30;38.03;33.69;42.81;;
70077;Laerm;57448;51.490;5.436;2023-11-21T00:29:56;38.61;34.24;42.94;;
70077;Laerm;57448;51.490;5.436;2023-11-21T00:32:21;39.79;34.64;45.91;;
70077;Laerm;57448;51.490;5.436;2023-11-21T00:34:46;39.31;34.21;46.71;;
70077;Laerm;57448;51.490;5.436;2023-11-21T00:37:12;39.19;33.95;45.55;;
70077;Laerm;57448;51.490;5.436;2023-11-21T00:39:37;38.73;33.68;46.20;;
70077;Laerm;57448;51.490;5.436;2023-11-21T00:42:02;36.67;32.15;44.20;;
70077;Laerm;57448;51.490;5.436;2023-11-21T00:44:30;38.17;34.55;42.42;;
70077;Laerm;57448;51.490;5.436;2023-11-21T00:46:55;39.04;34.58;45.06;;
70077;Laerm;57448;51.490;5.436;2023-11-21T00:49:20;38.42;35.69;42.12;;
70077;Laerm;57448;51.490;5.436;2023-11-21T00:51:46;39.69;35.75;43.99;;
70077;Laerm;57448;51.490;5.436;2023-11-21T00:54:11;38.43;34.59;45.24;;
70077;Laerm;57448;51.490;5.436;2023-11-21T00:56:37;41.60;35.73;50.71;;
70077;Laerm;57448;51.490;5.436;2023-11-21T00:59:02;39.64;35.15;47.00;;
70077;Laerm;57448;51.490;5.436;2023-11-21T01:01:30;36.65;32.53;44.78;;
70077;Laerm;57448;51.490;5.436;2023-11-21T01:03:55;37.24;33.32;44.84;;
70077;Laerm;57448;51.490;5.436;2023-11-21T01:06:20;39.79;35.38;48.07;;
70077;Laerm;57448;51.490;5.436;2023-11-21T01:08:46;40.66;36.20;47.07;;
70077;Laerm;57448;51.490;5.436;2023-11-21T01:11:11;39.67;35.50;45.89;;
70077;Laerm;57448;51.490;5.436;2023-11-21T01:13:37;39.50;34.86;43.99;;
70077;Laerm;57448;51.490;5.436;2023-11-21T01:16:03;39.10;34.02;46.69;;
70077;Laerm;57448;51.490;5.436;2023-11-21T01:18:29;38.97;34.57;45.87;;
70077;Laerm;57448;51.490;5.436;2023-11-21T01:20:54;37.66;33.36;45.57;;
70077;Laerm;57448;51.490;5.436;2023-11-21T01:23:19;38.10;33.23;46.67;;
70077;Laerm;57448;51.490;5.436;2023-11-21T01:25:45;40.12;35.22;47.81;;
70077;Laerm;57448;51.490;5.436;2023-11-21T01:28:10;39.11;35.23;44.28;;
70077;Laerm;57448;51.490;5.436;2023-11-21T01:30:36;38.40;34.41;45.91;;
70077;Laerm;57448;51.490;5.436;2023-11-21T01:33:01;39.48;35.18;44.09;;
70077;Laerm;57448;51.490;5.436;2023-11-21T01:35:26;40.29;36.69;45.92;;
70077;Laerm;57448;51.490;5.436;2023-11-21T01:37:52;40.05;35.61;45.16;;
70077;Laerm;57448;51.490;5.436;2023-11-21T01:40:17;38.77;35.30;42.90;;
70077;Laerm;57448;51.490;5.436;2023-11-21T01:42:42;38.82;36.33;41.89;;
70077;Laerm;57448;51.490;5.436;2023-11-21T01:45:09;39.78;35.67;44.00;;
70077;Laerm;57448;51.490;5.436;2023-11-21T01:47:34;38.41;34.57;43.69;;
70077;Laerm;57448;51.490;5.436;2023-11-21T01:50:01;36.74;33.85;40.96;;
70077;Laerm;57448;51.490;5.436;2023-11-21T01:52:26;38.79;35.67;45.73;;
70077;Laerm;57448;51.490;5.436;2023-11-21T01:54:52;38.22;35.60;41.78;;
70077;Laerm;57448;51.490;5.436;2023-11-21T01:57:18;39.14;35.30;43.78;;
70077;Laerm;57448;51.490;5.436;2023-11-21T01:59:44;36.65;34.12;41.34;;
70077;Laerm;57448;51.490;5.436;2023-11-21T02:02:09;37.54;33.70;41.25;;
70077;Laerm;57448;51.490;5.436;2023-11-21T02:04:35;37.13;33.66;40.91;;
70077;Laerm;57448;51.490;5.436;2023-11-21T02:07:01;36.55;33.33;41.76;;
70077;Laerm;57448;51.490;5.436;2023-11-21T02:09:27;38.14;33.80;43.87;;
70077;Laerm;57448;51.490;5.436;2023-11-21T02:11:54;37.31;34.68;41.97;;
70077;Laerm;57448;51.490;5.436;2023-11-21T02:14:20;37.19;33.90;42.15;;
70077;Laerm;57448;51.490;5.436;2023-11-21T02:16:50;35.18;32.09;39.82;;
70077;Laerm;57448;51.490;5.436;2023-11-21T02:19:20;38.60;33.15;43.41;;
70077;Laerm;57448;51.490;5.436;2023-11-21T02:21:49;36.56;32.60;40.95;;
70077;Laerm;57448;51.490;5.436;2023-11-21T02:24:14;36.15;33.15;41.79;;
70077;Laerm;57448;51.490;5.436;2023-11-21T02:26:40;36.74;34.04;40.70;;
70077;Laerm;57448;51.490;5.436;2023-11-21T02:29:06;37.11;33.72;45.40;;
70077;Laerm;57448;51.490;5.436;2023-11-21T02:31:35;36.29;33.77;41.86;;
70077;Laerm;57448;51.490;5.436;2023-11-21T02:34:02;35.50;31.79;40.76;;
70077;Laerm;57448;51.490;5.436;2023-11-21T02:36:28;36.22;33.34;40.55;;
70077;Laerm;57448;51.490;5.436;2023-11-21T02:38:53;36.97;33.62;41.14;;
70077;Laerm;57448;51.490;5.436;2023-11-21T02:41:19;36.36;32.69;44.64;;
70077;Laerm;57448;51.490;5.436;2023-11-21T02:43:44;35.90;33.15;42.17;;
70077;Laerm;57448;51.490;5.436;2023-11-21T02:46:09;37.89;33.76;43.55;;
70077;Laerm;57448;51.490;5.436;2023-11-21T02:48:35;37.52;33.44;41.76;;
70077;Laerm;57448;51.490;5.436;2023-11-21T02:51:01;36.76;33.11;45.56;;
70077;Laerm;57448;51.490;5.436;2023-11-21T02:53:26;36.74;31.97;40.80;;
70077;Laerm;57448;51.490;5.436;2023-11-21T02:55:51;37.42;33.42;42.51;;
70077;Laerm;57448;51.490;5.436;2023-11-21T02:58:17;36.67;33.62;40.37;;
70077;Laerm;57448;51.490;5.436;2023-11-21T03:00:42;37.68;34.45;44.49;;
70077;Laerm;57448;51.490;5.436;2023-11-21T03:03:07;38.05;34.08;42.88;;
70077;Laerm;57448;51.490;5.436;2023-11-21T03:05:33;37.35;34.30;41.38;;
70077;Laerm;57448;51.490;5.436;2023-11-21T03:08:00;38.62;35.38;44.85;;
70077;Laerm;57448;51.490;5.436;2023-11-21T03:10:26;38.57;34.49;44.44;;
70077;Laerm;57448;51.490;5.436;2023-11-21T03:12:52;39.55;37.14;42.58;;
70077;Laerm;57448;51.490;5.436;2023-11-21T03:15:17;39.31;36.21;44.57;;
70077;Laerm;57448;51.490;5.436;2023-11-21T03:17:43;38.34;34.97;45.06;;
70077;Laerm;57448;51.490;5.436;2023-11-21T03:20:08;38.80;34.43;43.91;;
70077;Laerm;57448;51.490;5.436;2023-11-21T03:22:36;38.26;34.09;44.72;;
70077;Laerm;57448;51.490;5.436;2023-11-21T03:25:01;38.16;34.44;44.27;;
70077;Laerm;57448;51.490;5.436;2023-11-21T03:27:27;39.05;34.45;44.17;;
70077;Laerm;57448;51.490;5.436;2023-11-21T03:29:52;39.32;35.66;43.40;;
70077;Laerm;57448;51.490;5.436;2023-11-21T03:32:19;39.05;35.96;44.47;;
70077;Laerm;57448;51.490;5.436;2023-11-21T03:34:54;41.39;37.49;45.33;;
70077;Laerm;57448;51.490;5.436;2023-11-21T03:37:21;40.87;36.61;49.01;;
70077;Laerm;57448;51.490;5.436;2023-11-21T03:39:46;41.28;37.04;46.29;;
70077;Laerm;57448;51.490;5.436;2023-11-21T03:42:12;39.24;35.75;50.42;;
70077;Laerm;57448;51.490;5.436;2023-11-21T03:44:37;39.30;35.28;43.80;;
70077;Laerm;57448;51.490;5.436;2023-11-21T03:47:02;40.59;36.75;46.53;;
70077;Laerm;57448;51.490;5.436;2023-11-21T03:49:28;41.06;38.00;45.16;;
70077;Laerm;57448;51.490;5.436;2023-11-21T03:51:54;40.67;36.96;44.44;;
70077;Laerm;57448;51.490;5.436;2023-11-21T03:54:19;40.45;36.56;45.62;;
70077;Laerm;57448;51.490;5.436;2023-11-21T03:56:45;40.01;36.99;43.61;;
70077;Laerm;57448;51.490;5.436;2023-11-21T03:59:10;40.42;36.99;46.92;;
70077;Laerm;57448;51.490;5.436;2023-11-21T04:01:36;40.28;36.17;44.40;;
70077;Laerm;57448;51.490;5.436;2023-11-21T04:04:02;41.27;38.08;45.93;;
70077;Laerm;57448;51.490;5.436;2023-11-21T04:06:27;41.86;39.33;45.76;;
70077;Laerm;57448;51.490;5.436;2023-11-21T04:08:52;41.95;38.94;46.84;;
70077;Laerm;57448;51.490;5.436;2023-11-21T04:11:18;42.97;39.56;46.88;;
70077;Laerm;57448;51.490;5.436;2023-11-21T04:13:43;42.84;40.10;45.80;;
70077;Laerm;57448;51.490;5.436;2023-11-21T04:16:09;43.01;40.07;47.26;;
70077;Laerm;57448;51.490;5.436;2023-11-21T04:18:35;42.71;39.69;47.79;;
70077;Laerm;57448;51.490;5.436;2023-11-21T04:21:01;43.78;40.20;47.80;;
70077;Laerm;57448;51.490;5.436;2023-11-21T04:23:26;43.72;41.08;48.22;;
70077;Laerm;57448;51.490;5.436;2023-11-21T04:25:52;44.15;40.71;47.41;;
70077;Laerm;57448;51.490;5.436;2023-11-21T04:28:19;44.36;40.34;58.34;;
70077;Laerm;57448;51.490;5.436;2023-11-21T04:30:44;44.43;40.96;49.47;;
70077;Laerm;57448;51.490;5.436;2023-11-21T04:33:10;44.92;41.30;47.98;;
70077;Laerm;57448;51.490;5.436;2023-11-21T04:35:35;44.99;41.34;49.89;;
70077;Laerm;57448;51.490;5.436;2023-11-21T04:38:01;45.88;42.76;49.09;;
70077;Laerm;57448;51.490;5.436;2023-11-21T04:40:26;45.38;42.19;51.05;;
70077;Laerm;57448;51.490;5.436;2023-11-21T04:42:52;46.23;41.94;60.53;;
70077;Laerm;57448;51.490;5.436;2023-11-21T04:45:17;47.89;42.64;58.78;;
70077;Laerm;57448;51.490;5.436;2023-11-21T04:47:43;46.49;43.31;51.70;;
70077;Laerm;57448;51.490;5.436;2023-11-21T04:50:08;47.12;44.39;51.11;;
70077;Laerm;57448;51.490;5.436;2023-11-21T04:52:34;46.00;43.01;52.02;;
70077;Laerm;57448;51.490;5.436;2023-11-21T04:54:59;46.68;43.09;52.50;;
70077;Laerm;57448;51.490;5.436;2023-11-21T04:57:26;47.18;43.92;54.01;;
70077;Laerm;57448;51.490;5.436;2023-11-21T04:59:53;46.45;43.83;50.02;;
70077;Laerm;57448;51.490;5.436;2023-11-21T05:02:18;46.68;43.99;50.52;;
70077;Laerm;57448;51.490;5.436;2023-11-21T05:04:44;46.55;43.38;52.09;;
70077;Laerm;57448;51.490;5.436;2023-11-21T05:07:10;45.44;42.89;48.44;;
70077;Laerm;57448;51.490;5.436;2023-11-21T05:09:35;46.81;43.97;51.06;;
70077;Laerm;57448;51.490;5.436;2023-11-21T05:12:01;46.02;43.20;49.50;;
70077;Laerm;57448;51.490;5.436;2023-11-21T05:14:27;47.21;43.67;61.71;;
70077;Laerm;57448;51.490;5.436;2023-11-21T05:16:52;46.06;43.16;49.82;;
70077;Laerm;57448;51.490;5.436;2023-11-21T05:19:17;46.05;43.73;53.50;;
70077;Laerm;57448;51.490;5.436;2023-11-21T05:21:43;46.04;43.60;51.82;;
70077;Laerm;57448;51.490;5.436;2023-11-21T05:24:08;46.15;43.43;49.71;;
70077;Laerm;57448;51.490;5.436;2023-11-21T05:26:34;46.26;44.18;50.25;;
70077;Laerm;57448;51.490;5.436;2023-11-21T05:28:59;47.15;42.78;52.87;;
70077;Laerm;57448;51.490;5.436;2023-11-21T05:31:25;45.82;43.69;50.77;;
70077;Laerm;57448;51.490;5.436;2023-11-21T05:33:50;46.84;43.38;58.28;;
70077;Laerm;57448;51.490;5.436;2023-11-21T05:36:16;44.55;42.05;46.57;;
70077;Laerm;57448;51.490;5.436;2023-11-21T05:38:41;43.94;42.31;47.17;;
70077;Laerm;57448;51.490;5.436;2023-11-21T05:41:06;45.00;41.90;52.26;;
70077;Laerm;57448;51.490;5.436;2023-11-21T05:43:33;44.27;41.65;49.89;;
70077;Laerm;57448;51.490;5.436;2023-11-21T05:46:00;45.07;41.61;57.02;;
70077;Laerm;57448;51.490;5.436;2023-11-21T05:48:26;44.59;41.22;52.09;;
70077;Laerm;57448;51.490;5.436;2023-11-21T05:50:51;44.60;40.70;55.62;;
70077;Laerm;57448;51.490;5.436;2023-11-21T05:53:17;44.16;41.38;55.84;;
70077;Laerm;57448;51.490;5.436;2023-11-21T05:55:42;44.63;41.62;57.30;;
70077;Laerm;57448;51.490;5.436;2023-11-21T05:58:08;44.00;41.07;58.67;;
70077;Laerm;57448;51.490;5.436;2023-11-21T06:00:33;43.72;41.32;47.72;;
70077;Laerm;57448;51.490;5.436;2023-11-21T06:02:58;44.89;42.76;51.17;;
70077;Laerm;57448;51.490;5.436;2023-11-21T06:05:24;61.85;42.55;72.15;;
70077;Laerm;57448;51.490;5.436;2023-11-21T06:07:50;45.67;43.19;53.28;;
70077;Laerm;57448;51.490;5.436;2023-11-21T06:10:15;61.86;43.42;73.67;;
70077;Laerm;57448;51.490;5.436;2023-11-21T06:12:43;46.15;42.60;54.50;;
70077;Laerm;57448;51.490;5.436;2023-11-21T06:15:08;45.29;42.42;57.60;;
70077;Laerm;57448;51.490;5.436;2023-11-21T06:17:34;45.58;43.08;52.79;;
70077;Laerm;57448;51.490;5.436;2023-11-21T06:20:02;44.80;42.35;55.61;;
70077;Laerm;57448;51.490;5.436;2023-11-21T06:22:34;45.45;42.75;54.04;;
70077;Laerm;57448;51.490;5.436;2023-11-21T06:24:59;45.56;43.04;53.16;;
70077;Laerm;57448;51.490;5.436;2023-11-21T06:27:25;46.39;43.42;55.73;;
70077;Laerm;57448;51.490;5.436;2023-11-21T06:29:50;45.89;43.28;53.71;;
70077;Laerm;57448;51.490;5.436;2023-11-21T06:32:15;56.31;43.85;67.94;;
70077;Laerm;57448;51.490;5.436;2023-11-21T06:34:41;50.27;43.52;60.64;;
70077;Laerm;57448;51.490;5.436;2023-11-21T06:37:06;47.47;44.06;57.38;;
70077;Laerm;57448;51.490;5.436;2023-11-21T06:39:32;47.44;43.58;59.22;;
70077;Laerm;57448;51.490;5.436;2023-11-21T06:41:57;46.55;43.13;56.42;;
70077;Laerm;57448;51.490;5.436;2023-11-21T06:44:25;45.70;43.17;55.83;;
70077;Laerm;57448;51.490;5.436;2023-11-21T06:46:50;45.67;43.43;54.10;;
70077;Laerm;57448;51.490;5.436;2023-11-21T06:49:16;46.86;43.05;57.74;;
70077;Laerm;57448;51.490;5.436;2023-11-21T06:51:42;46.99;43.55;58.92;;
70077;Laerm;57448;51.490;5.436;2023-11-21T06:54:07;44.62;42.63;49.06;;
70077;Laerm;57448;51.490;5.436;2023-11-21T06:56:32;45.31;43.14;53.41;;
70077;Laerm;57448;51.490;5.436;2023-11-21T06:58:58;46.56;43.71;61.24;;
70077;Laerm;57448;51.490;5.436;2023-11-21T07:01:23;49.91;43.95;74.34;;
70077;Laerm;57448;51.490;5.436;2023-11-21T07:03:49;46.18;43.73;64.20;;
70077;Laerm;57448;51.490;5.436;2023-11-21T07:06:15;46.37;43.63;57.62;;
70077;Laerm;57448;51.490;5.436;2023-11-21T07:08:40;63.49;43.33;75.59;;
70077;Laerm;57448;51.490;5.436;2023-11-21T07:11:05;46.85;44.33;56.62;;
70077;Laerm;57448;51.490;5.436;2023-11-21T07:13:31;57.11;44.07;70.03;;
70077;Laerm;57448;51.490;5.436;2023-11-21T07:15:57;51.59;44.90;61.28;;
70077;Laerm;57448;51.490;5.436;2023-11-21T07:18:23;47.05;43.92;61.26;;
70077;Laerm;57448;51.490;5.436;2023-11-21T07:20:48;46.87;43.68;57.24;;
70077;Laerm;57448;51.490;5.436;2023-11-21T07:23:13;46.74;44.48;57.15;;
70077;Laerm;57448;51.490;5.436;2023-11-21T07:25:40;45.90;43.89;55.05;;
70077;Laerm;57448;51.490;5.436;2023-11-21T07:28:06;46.45;43.84;54.25;;
70077;Laerm;57448;51.490;5.436;2023-11-21T07:30:32;46.45;43.35;57.45;;
70077;Laerm;57448;51.490;5.436;2023-11-21T07:32:57;45.63;43.50;48.65;;
70077;Laerm;57448;51.490;5.436;2023-11-21T07:35:22;46.07;43.06;56.10;;
70077;Laerm;57448;51.490;5.436;2023-11-21T07:37:48;48.29;43.45;60.69;;
70077;Laerm;57448;51.490;5.436;2023-11-21T07:40:14;48.48;43.39;62.85;;
70077;Laerm;57448;51.490;5.436;2023-11-21T07:42:39;46.40;44.04;56.67;;
70077;Laerm;57448;51.490;5.436;2023-11-21T07:45:05;46.47;44.51;53.34;;
70077;Laerm;57448;51.490;5.436;2023-11-21T07:47:32;46.35;44.40;53.40;;
70077;Laerm;57448;51.490;5.436;2023-11-21T07:49:57;46.64;44.52;51.83;;
70077;Laerm;57448;51.490;5.436;2023-11-21T07:52:22;47.07;45.12;56.73;;
70077;Laerm;57448;51.490;5.436;2023-11-21T07:54:49;49.33;46.37;57.15;;
70077;Laerm;57448;51.490;5.436;2023-11-21T07:57:14;48.11;45.55;58.02;;
70077;Laerm;57448;51.490;5.436;2023-11-21T07:59:40;47.15;44.32;52.36;;
70077;Laerm;57448;51.490;5.436;2023-11-21T08:02:08;46.86;43.98;51.98;;
70077;Laerm;57448;51.490;5.436;2023-11-21T08:04:33;45.78;43.30;51.29;;
70077;Laerm;57448;51.490;5.436;2023-11-21T08:07:00;45.24;42.79;58.27;;
70077;Laerm;57448;51.490;5.436;2023-11-21T08:09:26;46.84;43.64;56.16;;
70077;Laerm;57448;51.490;5.436;2023-11-21T08:11:52;46.72;43.95;52.03;;
70077;Laerm;57448;51.490;5.436;2023-11-21T08:14:18;45.80;43.75;50.58;;
70077;Laerm;57448;51.490;5.436;2023-11-21T08:16:43;47.03;44.40;54.02;;
70077;Laerm;57448;51.490;5.436;2023-11-21T08:19:09;45.87;42.61;54.13;;
70077;Laerm;57448;51.490;5.436;2023-11-21T08:21:35;46.12;42.10;57.56;;
70077;Laerm;57448;51.490;5.436;2023-11-21T08:24:02;44.82;42.16;56.26;;
70077;Laerm;57448;51.490;5.436;2023-11-21T08:26:29;44.29;41.98;51.81;;
70077;Laerm;57448;51.490;5.436;2023-11-21T08:28:54;44.09;41.42;54.30;;
70077;Laerm;57448;51.490;5.436;2023-11-21T08:31:25;55.72;43.23;68.67;;
70077;Laerm;57448;51.490;5.436;2023-11-21T08:33:50;45.05;42.38;50.39;;
70077;Laerm;57448;51.490;5.436;2023-11-21T08:36:15;46.18;42.07;71.58;;
70077;Laerm;57448;51.490;5.436;2023-11-21T08:38:41;61.31;42.28;73.71;;
70077;Laerm;57448;51.490;5.436;2023-11-21T08:41:06;46.58;43.56;68.03;;
70077;Laerm;57448;51.490;5.436;2023-11-21T08:43:36;50.31;43.87;63.85;;
70077;Laerm;57448;51.490;5.436;2023-11-21T08:46:05;58.53;43.70;70.43;;
70077;Laerm;57448;51.490;5.436;2023-11-21T08:48:30;59.26;43.26;71.48;;
70077;Laerm;57448;51.490;5.436;2023-11-21T08:50:56;45.36;43.55;50.59;;
70077;Laerm;57448;51.490;5.436;2023-11-21T08:53:21;44.47;42.38;53.02;;
70077;Laerm;57448;51.490;5.436;2023-11-21T08:55:47;44.78;42.39;54.37;;
70077;Laerm;57448;51.490;5.436;2023-11-21T08:58:13;45.28;42.81;54.45;;
70077;Laerm;57448;51.490;5.436;2023-11-21T09:00:39;44.93;42.51;49.83;;
70077;Laerm;57448;51.490;5.436;2023-11-21T09:03:05;46.96;42.69;61.57;;
70077;Laerm;57448;51.490;5.436;2023-11-21T09:05:33;44.68;42.18;52.19;;
70077;Laerm;57448;51.490;5.436;2023-11-21T09:07:59;44.54;41.61;51.02;;
70077;Laerm;57448;51.490;5.436;2023-11-21T09:10:24;42.48;40.58;46.22;;
70077;Laerm;57448;51.490;5.436;2023-11-21T09:12:50;47.57;40.32;56.43;;
70077;Laerm;57448;51.490;5.436;2023-11-21T09:15:17;43.51;38.78;58.45;;
70077;Laerm;57448;51.490;5.436;2023-11-21T09:17:42;43.82;38.74;67.78;;
70077;Laerm;57448;51.490;5.436;2023-11-21T09:20:08;40.46;38.32;43.24;;
70077;Laerm;57448;51.490;5.436;2023-11-21T09:22:35;41.25;38.38;49.10;;
70077;Laerm;57448;51.490;5.436;2023-11-21T09:25:00;41.06;38.02;50.25;;
70077;Laerm;57448;51.490;5.436;2023-11-21T09:27:25;40.48;38.36;49.77;;
70077;Laerm;57448;51.490;5.436;2023-11-21T09:29:51;41.43;39.38;46.73;;
70077;Laerm;57448;51.490;5.436;2023-11-21T09:32:17;42.66;40.78;46.88;;
70077;Laerm;57448;51.490;5.436;2023-11-21T09:34:43;43.66;41.11;54.54;;
70077;Laerm;57448;51.490;5.436;2023-11-21T09:37:09;42.81;39.73;53.59;;
70077;Laerm;57448;51.490;5.436;2023-11-21T09:39:34;41.96;39.35;46.72;;
70077;Laerm;57448;51.490;5.436;2023-11-21T09:42:17;41.98;38.65;55.40;;
70077;Laerm;57448;51.490;5.436;2023-11-21T09:47:18;42.73;39.66;51.88;;
70077;Laerm;57448;51.490;5.436;2023-11-21T09:49:48;42.10;39.40;46.82;;
70077;Laerm;57448;51.490;5.436;2023-11-21T09:52:27;41.62;39.48;50.23;;
70077;Laerm;57448;51.490;5.436;2023-11-21T09:54:53;46.60;39.38;61.72;;
70077;Laerm;57448;51.490;5.436;2023-11-21T09:57:21;43.02;40.28;51.42;;
70077;Laerm;57448;51.490;5.436;2023-11-21T09:59:49;42.70;39.85;53.62;;
70077;Laerm;57448;51.490;5.436;2023-11-21T10:02:16;41.84;39.07;50.88;;
70077;Laerm;57448;51.490;5.436;2023-11-21T10:04:43;41.31;37.93;49.62;;
70077;Laerm;57448;51.490;5.436;2023-11-21T10:07:09;46.46;38.02;64.50;;
70077;Laerm;57448;51.490;5.436;2023-11-21T10:09:36;39.75;37.72;48.40;;
70077;Laerm;57448;51.490;5.436;2023-11-21T10:12:03;42.90;37.91;60.14;;
70077;Laerm;57448;51.490;5.436;2023-11-21T10:14:31;42.29;37.96;53.15;;
70077;Laerm;57448;51.490;5.436;2023-11-21T10:16:57;40.96;38.20;53.99;;
70077;Laerm;57448;51.490;5.436;2023-11-21T10:19:23;41.30;37.66;57.85;;
70077;Laerm;57448;51.490;5.436;2023-11-21T10:21:49;40.11;37.69;49.60;;
70077;Laerm;57448;51.490;5.436;2023-11-21T10:24:14;39.17;37.10;46.82;;
70077;Laerm;57448;51.490;5.436;2023-11-21T10:26:40;41.23;38.57;51.76;;
70077;Laerm;57448;51.490;5.436;2023-11-21T10:29:06;40.84;38.53;48.73;;
70077;Laerm;57448;51.490;5.436;2023-11-21T10:31:32;41.40;38.42;51.69;;
70077;Laerm;57448;51.490;5.436;2023-11-21T10:34:12;44.09;39.84;58.23;;
70077;Laerm;57448;51.490;5.436;2023-11-21T10:36:37;60.40;40.11;74.11;;
70077;Laerm;57448;51.490;5.436;2023-11-21T10:39:03;54.27;40.42;70.00;;
70077;Laerm;57448;51.490;5.436;2023-11-21T10:41:28;45.12;41.10;60.16;;
70077;Laerm;57448;51.490;5.436;2023-11-21T10:43:54;46.21;41.26;59.41;;
70077;Laerm;57448;51.490;5.436;2023-11-21T10:46:21;45.98;39.63;59.23;;
70077;Laerm;57448;51.490;5.436;2023-11-21T10:48:52;51.22;40.53;67.92;;
70077;Laerm;57448;51.490;5.436;2023-11-21T10:51:17;45.41;42.83;49.22;;
70077;Laerm;57448;51.490;5.436;2023-11-21T10:53:44;45.92;42.71;60.05;;
70077;Laerm;57448;51.490;5.436;2023-11-21T10:56:10;44.42;41.06;57.51;;
70077;Laerm;57448;51.490;5.436;2023-11-21T10:58:42;46.13;40.61;63.27;;
70077;Laerm;57448;51.490;5.436;2023-11-21T11:01:08;41.64;39.16;47.58;;
70077;Laerm;57448;51.490;5.436;2023-11-21T11:03:36;44.94;39.87;49.28;;
70077;Laerm;57448;51.490;5.436;2023-11-21T11:06:02;46.71;43.45;53.32;;
70077;Laerm;57448;51.490;5.436;2023-11-21T11:08:29;46.68;42.79;50.52;;
70077;Laerm;57448;51.490;5.436;2023-11-21T11:10:55;45.49;42.19;58.63;;
70077;Laerm;57448;51.490;5.436;2023-11-21T11:13:21;47.51;43.73;56.83;;
70077;Laerm;57448;51.490;5.436;2023-11-21T11:15:49;48.32;43.66;61.29;;
70077;Laerm;57448;51.490;5.436;2023-11-21T11:18:15;47.55;43.90;55.23;;
70077;Laerm;57448;51.490;5.436;2023-11-21T11:20:40;46.84;44.49;56.09;;
70077;Laerm;57448;51.490;5.436;2023-11-21T11:28:21;46.92;44.12;59.53;;
70077;Laerm;57448;51.490;5.436;2023-11-21T11:30:57;48.35;43.76;61.55;;
70077;Laerm;57448;51.490;5.436;2023-11-21T11:38:22;45.34;43.15;53.95;;
70077;Laerm;57448;51.490;5.436;2023-11-21T11:40:48;46.46;42.90;57.95;;
70077;Laerm;57448;51.490;5.436;2023-11-21T11:43:24;46.72;41.91;68.07;;
70077;Laerm;57448;51.490;5.436;2023-11-21T11:45:50;44.93;42.38;48.81;;
70077;Laerm;57448;51.490;5.436;2023-11-21T11:48:17;44.46;41.33;50.70;;
70077;Laerm;57448;51.490;5.436;2023-11-21T11:51:04;45.83;42.76;56.50;;
70077;Laerm;57448;51.490;5.436;2023-11-21T11:53:40;46.93;43.66;54.90;;
70077;Laerm;57448;51.490;5.436;2023-11-21T11:58:44;49.03;44.03;62.64;;
70077;Laerm;57448;51.490;5.436;2023-11-21T12:01:10;50.54;43.89;69.94;;
70077;Laerm;57448;51.490;5.436;2023-11-21T12:03:36;46.42;43.29;61.92;;
70077;Laerm;57448;51.490;5.436;2023-11-21T12:06:02;46.51;43.86;49.92;;
70077;Laerm;57448;51.490;5.436;2023-11-21T12:08:28;46.71;43.98;49.58;;
70077;Laerm;57448;51.490;5.436;2023-11-21T12:10:57;47.10;42.77;58.55;;
70077;Laerm;57448;51.490;5.436;2023-11-21T12:13:22;46.86;43.65;60.18;;
70077;Laerm;57448;51.490;5.436;2023-11-21T12:15:48;47.02;44.00;51.54;;
70077;Laerm;57448;51.490;5.436;2023-11-21T12:18:14;46.50;43.88;52.12;;
70077;Laerm;57448;51.490;5.436;2023-11-21T12:20:39;55.93;44.41;69.96;;
70077;Laerm;57448;51.490;5.436;2023-11-21T12:23:06;47.96;44.63;56.40;;
70077;Laerm;57448;51.490;5.436;2023-11-21T12:25:31;47.94;44.51;57.69;;
70077;Laerm;57448;51.490;5.436;2023-11-21T12:27:58;47.93;44.36;54.69;;
70077;Laerm;57448;51.490;5.436;2023-11-21T12:30:25;50.81;44.17;65.04;;
70077;Laerm;57448;51.490;5.436;2023-11-21T12:32:54;54.48;45.22;67.95;;
70077;Laerm;57448;51.490;5.436;2023-11-21T12:35:21;60.85;44.19;72.88;;
70077;Laerm;57448;51.490;5.436;2023-11-21T12:37:47;47.43;44.83;54.03;;
70077;Laerm;57448;51.490;5.436;2023-11-21T12:40:13;46.78;44.58;56.02;;
70077;Laerm;57448;51.490;5.436;2023-11-21T12:42:44;57.11;43.60;69.75;;
70077;Laerm;57448;51.490;5.436;2023-11-21T12:47:42;47.13;44.57;52.33;;
70077;Laerm;57448;51.490;5.436;2023-11-21T12:50:08;47.40;45.03;49.84;;
70077;Laerm;57448;51.490;5.436;2023-11-21T12:52:40;47.37;44.87;50.56;;
70077;Laerm;57448;51.490;5.436;2023-11-21T12:55:05;48.39;45.55;53.34;;
70077;Laerm;57448;51.490;5.436;2023-11-21T12:57:33;49.57;46.98;53.68;;
70077;Laerm;57448;51.490;5.436;2023-11-21T12:59:58;48.83;46.15;52.27;;
70077;Laerm;57448;51.490;5.436;2023-11-21T13:02:29;49.38;46.14;56.84;;
70077;Laerm;57448;51.490;5.436;2023-11-21T13:04:56;49.79;47.01;57.25;;
70077;Laerm;57448;51.490;5.436;2023-11-21T13:07:23;49.45;46.68;53.62;;
70077;Laerm;57448;51.490;5.436;2023-11-21T13:09:52;48.19;44.54;51.18;;
70077;Laerm;57448;51.490;5.436;2023-11-21T13:12:17;46.96;44.70;49.44;;
70077;Laerm;57448;51.490;5.436;2023-11-21T13:14:49;47.77;44.73;54.11;;
70077;Laerm;57448;51.490;5.436;2023-11-21T13:17:15;47.53;44.52;51.34;;
70077;Laerm;57448;51.490;5.436;2023-11-21T13:19:40;47.29;45.02;51.26;;
70077;Laerm;57448;51.490;5.436;2023-11-21T13:22:07;46.94;43.96;51.10;;
70077;Laerm;57448;51.490;5.436;2023-11-21T13:24:36;47.72;43.65;64.12;;
70077;Laerm;57448;51.490;5.436;2023-11-21T13:27:01;45.64;43.26;52.99;;
70077;Laerm;57448;51.490;5.436;2023-11-21T13:29:27;48.78;44.48;63.68;;
70077;Laerm;57448;51.490;5.436;2023-11-21T13:31:54;45.97;43.21;52.00;;
70077;Laerm;57448;51.490;5.436;2023-11-21T13:34:20;46.18;44.10;51.31;;
70077;Laerm;57448;51.490;5.436;2023-11-21T13:36:47;46.09;42.89;50.39;;
70077;Laerm;57448;51.490;5.436;2023-11-21T13:39:13;45.57;42.84;53.34;;
70077;Laerm;57448;51.490;5.436;2023-11-21T13:41:40;47.29;44.56;52.07;;
70077;Laerm;57448;51.490;5.436;2023-11-21T13:44:06;48.93;46.40;54.49;;
70077;Laerm;57448;51.490;5.436;2023-11-21T13:46:50;53.18;44.81;68.57;;
70077;Laerm;57448;51.490;5.436;2023-11-21T13:49:15;59.23;44.90;73.50;;
70077;Laerm;57448;51.490;5.436;2023-11-21T13:51:41;47.77;45.35;51.34;;
70077;Laerm;57448;51.490;5.436;2023-11-21T13:54:09;49.23;46.54;53.89;;
70077;Laerm;57448;51.490;5.436;2023-11-21T13:56:38;76.68;45.87;92.40;;